sensor_id;sensor_type;location;lat;lon;timestamp;P1;durP1;ratioP1;P2;durP2;ratioP2
14994;SDS011;7593;49.006;8.372;2022-09-29T00:00:22;7.85;;;5.00;;
14994;SDS011;7593;49.006;8.372;2022-09-29T00:02:52;8.63;;;5.85;;
14994;SDS011;7593;49.006;8.372;2022-09-29T00:05:19;6.30;;;4.80;;
14994;SDS011;7593;49.006;8.372;2022-09-29T00:07:46;7.70;;;4.57;;
14994;SDS011;7593;49.006;8.372;2022-09-29T00:10:13;8.47;;;4.83;;
14994;SDS011;7593;49.006;8.372;2022-09-29T00:12:40;6.55;;;4.88;;
14994;SDS011;7593;49.006;8.372;2022-09-29T00:15:07;6.63;;;4.80;;
14994;SDS011;7593;49.006;8.372;2022-09-29T00:17:34;6.07;;;4.57;;
14994;SDS011;7593;49.006;8.372;2022-09-29T00:20:03;6.40;;;4.60;;
14994;SDS011;7593;49.006;8.372;2022-09-29T00:22:30;5.97;;;4.28;;
14994;SDS011;7593;49.006;8.372;2022-09-29T00:24:57;5.20;;;4.25;;
14994;SDS011;7593;49.006;8.372;2022-09-29T00:27:23;5.10;;;4.60;;
14994;SDS011;7593;49.006;8.372;2022-09-29T00:29:50;7.00;;;4.80;;
14994;SDS011;7593;49.006;8.372;2022-09-29T00:32:17;6.47;;;4.93;;
14994;SDS011;7593;49.006;8.372;2022-09-29T00:34:44;6.03;;;4.10;;
14994;SDS011;7593;49.006;8.372;2022-09-29T00:37:12;5.53;;;4.47;;
14994;SDS011;7593;49.006;8.372;2022-09-29T00:39:38;7.40;;;4.47;;
14994;SDS011;7593;49.006;8.372;2022-09-29T00:42:05;7.18;;;4.40;;
14994;SDS011;7593;49.006;8.372;2022-09-29T00:44:51;5.03;;;4.15;;
14994;SDS011;7593;49.006;8.372;2022-09-29T00:47:22;5.80;;;4.18;;
14994;SDS011;7593;49.006;8.372;2022-09-29T00:49:50;5.97;;;4.23;;
14994;SDS011;7593;49.006;8.372;2022-09-29T00:52:22;5.93;;;4.07;;
14994;SDS011;7593;49.006;8.372;2022-09-29T00:54:52;6.68;;;4.07;;
14994;SDS011;7593;49.006;8.372;2022-09-29T00:57:24;8.32;;;4.47;;
14994;SDS011;7593;49.006;8.372;2022-09-29T00:59:54;6.25;;;4.13;;
14994;SDS011;7593;49.006;8.372;2022-09-29T01:02:26;5.72;;;3.85;;
14994;SDS011;7593;49.006;8.372;2022-09-29T01:04:54;5.53;;;4.20;;
14994;SDS011;7593;49.006;8.372;2022-09-29T01:07:23;6.40;;;4.45;;
14994;SDS011;7593;49.006;8.372;2022-09-29T01:09:51;5.55;;;4.25;;
14994;SDS011;7593;49.006;8.372;2022-09-29T01:12:21;8.90;;;4.53;;
14994;SDS011;7593;49.006;8.372;2022-09-29T01:14:49;6.07;;;4.28;;
14994;SDS011;7593;49.006;8.372;2022-09-29T01:17:17;5.07;;;3.92;;
14994;SDS011;7593;49.006;8.372;2022-09-29T01:19:45;5.15;;;3.90;;
14994;SDS011;7593;49.006;8.372;2022-09-29T01:22:28;6.63;;;3.92;;
14994;SDS011;7593;49.006;8.372;2022-09-29T01:25:24;6.18;;;4.03;;
14994;SDS011;7593;49.006;8.372;2022-09-29T01:28:20;8.57;;;4.57;;
14994;SDS011;7593;49.006;8.372;2022-09-29T01:31:11;5.85;;;4.30;;
14994;SDS011;7593;49.006;8.372;2022-09-29T01:33:49;7.15;;;4.40;;
14994;SDS011;7593;49.006;8.372;2022-09-29T01:36:28;4.35;;;3.85;;
14994;SDS011;7593;49.006;8.372;2022-09-29T01:39:04;7.78;;;3.95;;
14994;SDS011;7593;49.006;8.372;2022-09-29T01:41:39;6.35;;;4.65;;
14994;SDS011;7593;49.006;8.372;2022-09-29T01:44:11;6.03;;;4.10;;
14994;SDS011;7593;49.006;8.372;2022-09-29T01:46:46;8.65;;;5.03;;
14994;SDS011;7593;49.006;8.372;2022-09-29T01:49:15;4.82;;;4.25;;
14994;SDS011;7593;49.006;8.372;2022-09-29T01:51:46;5.30;;;4.18;;
14994;SDS011;7593;49.006;8.372;2022-09-29T01:54:18;8.13;;;4.25;;
14994;SDS011;7593;49.006;8.372;2022-09-29T01:56:51;5.75;;;4.70;;
14994;SDS011;7593;49.006;8.372;2022-09-29T01:59:23;9.73;;;5.72;;
14994;SDS011;7593;49.006;8.372;2022-09-29T02:01:57;7.00;;;4.75;;
14994;SDS011;7593;49.006;8.372;2022-09-29T02:04:28;5.93;;;4.80;;
14994;SDS011;7593;49.006;8.372;2022-09-29T02:06:59;9.38;;;5.10;;
14994;SDS011;7593;49.006;8.372;2022-09-29T02:09:32;6.97;;;4.80;;
14994;SDS011;7593;49.006;8.372;2022-09-29T02:12:04;8.88;;;5.00;;
14994;SDS011;7593;49.006;8.372;2022-09-29T02:14:35;6.27;;;4.50;;
14994;SDS011;7593;49.006;8.372;2022-09-29T02:17:09;10.10;;;4.70;;
14994;SDS011;7593;49.006;8.372;2022-09-29T02:19:43;5.88;;;4.95;;
14994;SDS011;7593;49.006;8.372;2022-09-29T02:22:11;6.07;;;4.90;;
14994;SDS011;7593;49.006;8.372;2022-09-29T02:24:38;7.85;;;4.55;;
14994;SDS011;7593;49.006;8.372;2022-09-29T02:27:05;9.75;;;4.65;;
14994;SDS011;7593;49.006;8.372;2022-09-29T02:29:32;6.22;;;4.60;;
14994;SDS011;7593;49.006;8.372;2022-09-29T02:32:01;6.93;;;5.20;;
14994;SDS011;7593;49.006;8.372;2022-09-29T02:34:30;6.63;;;4.95;;
14994;SDS011;7593;49.006;8.372;2022-09-29T02:37:03;9.07;;;4.25;;
14994;SDS011;7593;49.006;8.372;2022-09-29T02:39:39;5.97;;;4.35;;
14994;SDS011;7593;49.006;8.372;2022-09-29T02:42:16;7.95;;;4.60;;
14994;SDS011;7593;49.006;8.372;2022-09-29T02:44:53;5.47;;;4.65;;
14994;SDS011;7593;49.006;8.372;2022-09-29T02:47:41;7.68;;;4.47;;
14994;SDS011;7593;49.006;8.372;2022-09-29T02:50:24;6.22;;;4.25;;
14994;SDS011;7593;49.006;8.372;2022-09-29T02:53:03;6.55;;;4.65;;
14994;SDS011;7593;49.006;8.372;2022-09-29T02:55:38;7.28;;;4.50;;
14994;SDS011;7593;49.006;8.372;2022-09-29T02:58:11;5.05;;;3.70;;
14994;SDS011;7593;49.006;8.372;2022-09-29T03:00:40;7.00;;;4.10;;
14994;SDS011;7593;49.006;8.372;2022-09-29T03:03:08;6.45;;;4.22;;
14994;SDS011;7593;49.006;8.372;2022-09-29T03:05:36;7.10;;;4.60;;
14994;SDS011;7593;49.006;8.372;2022-09-29T03:08:04;6.90;;;3.78;;
14994;SDS011;7593;49.006;8.372;2022-09-29T03:10:30;5.35;;;3.92;;
14994;SDS011;7593;49.006;8.372;2022-09-29T03:12:57;5.05;;;4.15;;
14994;SDS011;7593;49.006;8.372;2022-09-29T03:15:24;7.65;;;4.18;;
14994;SDS011;7593;49.006;8.372;2022-09-29T03:17:53;5.53;;;3.90;;
14994;SDS011;7593;49.006;8.372;2022-09-29T03:20:20;4.78;;;3.90;;
14994;SDS011;7593;49.006;8.372;2022-09-29T03:22:48;9.65;;;4.10;;
14994;SDS011;7593;49.006;8.372;2022-09-29T03:25:16;5.45;;;4.10;;
14994;SDS011;7593;49.006;8.372;2022-09-29T03:27:43;5.87;;;4.00;;
14994;SDS011;7593;49.006;8.372;2022-09-29T03:30:10;5.80;;;4.00;;
14994;SDS011;7593;49.006;8.372;2022-09-29T03:32:38;6.40;;;3.97;;
14994;SDS011;7593;49.006;8.372;2022-09-29T03:35:05;4.97;;;3.72;;
14994;SDS011;7593;49.006;8.372;2022-09-29T03:37:33;5.50;;;3.77;;
14994;SDS011;7593;49.006;8.372;2022-09-29T03:40:01;6.10;;;3.90;;
14994;SDS011;7593;49.006;8.372;2022-09-29T03:42:28;5.50;;;4.25;;
14994;SDS011;7593;49.006;8.372;2022-09-29T03:44:55;7.73;;;4.10;;
14994;SDS011;7593;49.006;8.372;2022-09-29T03:47:21;5.18;;;4.28;;
14994;SDS011;7593;49.006;8.372;2022-09-29T03:49:48;6.80;;;4.05;;
14994;SDS011;7593;49.006;8.372;2022-09-29T03:52:15;6.07;;;4.27;;
14994;SDS011;7593;49.006;8.372;2022-09-29T03:54:43;9.65;;;4.20;;
14994;SDS011;7593;49.006;8.372;2022-09-29T03:57:11;6.73;;;3.97;;
14994;SDS011;7593;49.006;8.372;2022-09-29T03:59:38;6.68;;;3.97;;
14994;SDS011;7593;49.006;8.372;2022-09-29T04:02:05;6.90;;;4.30;;
14994;SDS011;7593;49.006;8.372;2022-09-29T04:04:31;7.32;;;4.28;;
14994;SDS011;7593;49.006;8.372;2022-09-29T04:06:58;6.85;;;4.40;;
14994;SDS011;7593;49.006;8.372;2022-09-29T04:09:25;8.32;;;4.90;;
14994;SDS011;7593;49.006;8.372;2022-09-29T04:11:51;6.47;;;4.85;;
14994;SDS011;7593;49.006;8.372;2022-09-29T04:14:19;7.75;;;4.43;;
14994;SDS011;7593;49.006;8.372;2022-09-29T04:16:46;7.37;;;4.50;;
14994;SDS011;7593;49.006;8.372;2022-09-29T04:19:13;8.52;;;4.97;;
14994;SDS011;7593;49.006;8.372;2022-09-29T04:21:39;6.68;;;5.13;;
14994;SDS011;7593;49.006;8.372;2022-09-29T04:24:06;8.10;;;4.87;;
14994;SDS011;7593;49.006;8.372;2022-09-29T04:26:33;7.43;;;5.60;;
14994;SDS011;7593;49.006;8.372;2022-09-29T04:29:00;6.30;;;4.53;;
14994;SDS011;7593;49.006;8.372;2022-09-29T04:31:28;9.18;;;5.22;;
14994;SDS011;7593;49.006;8.372;2022-09-29T04:33:54;8.50;;;4.60;;
14994;SDS011;7593;49.006;8.372;2022-09-29T04:36:21;7.50;;;4.87;;
14994;SDS011;7593;49.006;8.372;2022-09-29T04:38:48;5.87;;;4.87;;
14994;SDS011;7593;49.006;8.372;2022-09-29T04:41:15;8.25;;;5.43;;
14994;SDS011;7593;49.006;8.372;2022-09-29T04:43:42;7.95;;;5.35;;
14994;SDS011;7593;49.006;8.372;2022-09-29T04:46:09;8.10;;;5.13;;
14994;SDS011;7593;49.006;8.372;2022-09-29T04:48:38;5.60;;;4.72;;
14994;SDS011;7593;49.006;8.372;2022-09-29T04:51:05;7.72;;;4.70;;
14994;SDS011;7593;49.006;8.372;2022-09-29T04:53:34;8.40;;;4.97;;
14994;SDS011;7593;49.006;8.372;2022-09-29T04:56:05;7.17;;;4.97;;
14994;SDS011;7593;49.006;8.372;2022-09-29T04:58:33;5.50;;;4.40;;
14994;SDS011;7593;49.006;8.372;2022-09-29T05:01:03;6.00;;;5.07;;
14994;SDS011;7593;49.006;8.372;2022-09-29T05:03:31;7.63;;;5.40;;
14994;SDS011;7593;49.006;8.372;2022-09-29T05:05:59;13.63;;;10.30;;
14994;SDS011;7593;49.006;8.372;2022-09-29T05:08:26;17.23;;;12.65;;
14994;SDS011;7593;49.006;8.372;2022-09-29T05:10:53;17.65;;;11.98;;
14994;SDS011;7593;49.006;8.372;2022-09-29T05:13:20;11.15;;;6.68;;
14994;SDS011;7593;49.006;8.372;2022-09-29T05:15:46;9.03;;;6.80;;
14994;SDS011;7593;49.006;8.372;2022-09-29T05:18:13;11.68;;;7.22;;
14994;SDS011;7593;49.006;8.372;2022-09-29T05:20:40;11.95;;;8.25;;
14994;SDS011;7593;49.006;8.372;2022-09-29T05:23:08;9.00;;;6.80;;
14994;SDS011;7593;49.006;8.372;2022-09-29T05:25:35;8.02;;;5.90;;
14994;SDS011;7593;49.006;8.372;2022-09-29T05:28:02;6.07;;;4.95;;
14994;SDS011;7593;49.006;8.372;2022-09-29T05:30:29;9.85;;;6.82;;
14994;SDS011;7593;49.006;8.372;2022-09-29T05:32:55;9.82;;;5.93;;
14994;SDS011;7593;49.006;8.372;2022-09-29T05:35:22;7.85;;;6.80;;
14994;SDS011;7593;49.006;8.372;2022-09-29T05:37:49;5.85;;;4.20;;
14994;SDS011;7593;49.006;8.372;2022-09-29T05:40:17;7.07;;;5.90;;
14994;SDS011;7593;49.006;8.372;2022-09-29T05:42:44;8.32;;;5.82;;
14994;SDS011;7593;49.006;8.372;2022-09-29T05:45:11;5.30;;;4.05;;
14994;SDS011;7593;49.006;8.372;2022-09-29T05:47:39;6.22;;;4.40;;
14994;SDS011;7593;49.006;8.372;2022-09-29T05:50:07;4.82;;;4.32;;
14994;SDS011;7593;49.006;8.372;2022-09-29T05:52:34;6.40;;;4.68;;
14994;SDS011;7593;49.006;8.372;2022-09-29T05:55:01;6.63;;;4.70;;
14994;SDS011;7593;49.006;8.372;2022-09-29T05:57:30;5.95;;;5.20;;
14994;SDS011;7593;49.006;8.372;2022-09-29T05:59:56;6.75;;;4.35;;
14994;SDS011;7593;49.006;8.372;2022-09-29T06:02:23;5.80;;;4.43;;
14994;SDS011;7593;49.006;8.372;2022-09-29T06:04:50;7.20;;;4.93;;
14994;SDS011;7593;49.006;8.372;2022-09-29T06:07:17;6.60;;;5.10;;
14994;SDS011;7593;49.006;8.372;2022-09-29T06:09:43;5.82;;;4.65;;
14994;SDS011;7593;49.006;8.372;2022-09-29T06:12:11;5.68;;;4.97;;
14994;SDS011;7593;49.006;8.372;2022-09-29T06:14:40;7.72;;;4.82;;
14994;SDS011;7593;49.006;8.372;2022-09-29T06:17:06;10.00;;;4.93;;
14994;SDS011;7593;49.006;8.372;2022-09-29T06:19:37;7.72;;;4.95;;
14994;SDS011;7593;49.006;8.372;2022-09-29T06:22:03;6.90;;;4.72;;
14994;SDS011;7593;49.006;8.372;2022-09-29T06:24:30;11.20;;;5.05;;
14994;SDS011;7593;49.006;8.372;2022-09-29T06:26:57;9.65;;;5.22;;
14994;SDS011;7593;49.006;8.372;2022-09-29T06:29:24;7.60;;;4.82;;
14994;SDS011;7593;49.006;8.372;2022-09-29T06:31:52;9.68;;;5.30;;
14994;SDS011;7593;49.006;8.372;2022-09-29T06:34:18;6.72;;;4.72;;
14994;SDS011;7593;49.006;8.372;2022-09-29T06:36:45;9.90;;;5.20;;
14994;SDS011;7593;49.006;8.372;2022-09-29T06:39:29;11.50;;;5.63;;
14994;SDS011;7593;49.006;8.372;2022-09-29T06:41:56;9.32;;;4.70;;
14994;SDS011;7593;49.006;8.372;2022-09-29T06:44:24;9.73;;;4.40;;
14994;SDS011;7593;49.006;8.372;2022-09-29T06:46:56;8.85;;;4.70;;
14994;SDS011;7593;49.006;8.372;2022-09-29T06:49:23;6.63;;;4.18;;
14994;SDS011;7593;49.006;8.372;2022-09-29T06:51:50;9.23;;;4.22;;
14994;SDS011;7593;49.006;8.372;2022-09-29T06:54:18;6.50;;;4.38;;
14994;SDS011;7593;49.006;8.372;2022-09-29T06:56:46;7.38;;;4.32;;
14994;SDS011;7593;49.006;8.372;2022-09-29T06:59:13;5.35;;;3.83;;
14994;SDS011;7593;49.006;8.372;2022-09-29T07:01:40;9.05;;;4.82;;
14994;SDS011;7593;49.006;8.372;2022-09-29T07:04:08;6.18;;;4.32;;
14994;SDS011;7593;49.006;8.372;2022-09-29T07:06:35;7.88;;;4.65;;
14994;SDS011;7593;49.006;8.372;2022-09-29T07:09:02;7.50;;;5.10;;
14994;SDS011;7593;49.006;8.372;2022-09-29T07:11:29;7.15;;;4.57;;
14994;SDS011;7593;49.006;8.372;2022-09-29T07:13:56;5.07;;;4.57;;
14994;SDS011;7593;49.006;8.372;2022-09-29T07:16:23;6.00;;;4.22;;
14994;SDS011;7593;49.006;8.372;2022-09-29T07:18:50;8.45;;;5.90;;
14994;SDS011;7593;49.006;8.372;2022-09-29T07:21:18;6.22;;;4.70;;
14994;SDS011;7593;49.006;8.372;2022-09-29T07:23:46;10.43;;;6.78;;
14994;SDS011;7593;49.006;8.372;2022-09-29T07:26:13;13.93;;;6.72;;
14994;SDS011;7593;49.006;8.372;2022-09-29T07:28:41;16.30;;;8.05;;
14994;SDS011;7593;49.006;8.372;2022-09-29T07:31:09;9.48;;;4.70;;
14994;SDS011;7593;49.006;8.372;2022-09-29T07:33:38;7.82;;;4.55;;
14994;SDS011;7593;49.006;8.372;2022-09-29T07:36:05;13.98;;;7.38;;
14994;SDS011;7593;49.006;8.372;2022-09-29T07:38:33;9.80;;;6.25;;
14994;SDS011;7593;49.006;8.372;2022-09-29T07:41:00;13.63;;;7.50;;
14994;SDS011;7593;49.006;8.372;2022-09-29T07:43:27;7.25;;;4.05;;
14994;SDS011;7593;49.006;8.372;2022-09-29T07:45:55;5.63;;;4.18;;
14994;SDS011;7593;49.006;8.372;2022-09-29T07:48:21;6.63;;;4.63;;
14994;SDS011;7593;49.006;8.372;2022-09-29T07:50:48;6.50;;;4.30;;
14994;SDS011;7593;49.006;8.372;2022-09-29T07:53:16;5.07;;;4.20;;
14994;SDS011;7593;49.006;8.372;2022-09-29T07:55:45;8.63;;;4.28;;
14994;SDS011;7593;49.006;8.372;2022-09-29T07:58:11;6.88;;;4.40;;
14994;SDS011;7593;49.006;8.372;2022-09-29T08:00:41;5.45;;;4.30;;
14994;SDS011;7593;49.006;8.372;2022-09-29T08:03:08;5.55;;;4.13;;
14994;SDS011;7593;49.006;8.372;2022-09-29T08:05:35;6.45;;;4.10;;
14994;SDS011;7593;49.006;8.372;2022-09-29T08:08:03;8.00;;;3.97;;
14994;SDS011;7593;49.006;8.372;2022-09-29T08:10:31;8.65;;;3.90;;
14994;SDS011;7593;49.006;8.372;2022-09-29T08:12:59;5.95;;;3.75;;
14994;SDS011;7593;49.006;8.372;2022-09-29T08:15:26;4.20;;;3.75;;
14994;SDS011;7593;49.006;8.372;2022-09-29T08:17:53;4.00;;;3.60;;
14994;SDS011;7593;49.006;8.372;2022-09-29T08:20:21;7.25;;;3.85;;
14994;SDS011;7593;49.006;8.372;2022-09-29T08:22:48;7.28;;;3.47;;
14994;SDS011;7593;49.006;8.372;2022-09-29T08:25:15;7.43;;;4.05;;
14994;SDS011;7593;49.006;8.372;2022-09-29T08:27:43;4.47;;;3.72;;
14994;SDS011;7593;49.006;8.372;2022-09-29T08:30:12;7.28;;;4.00;;
14994;SDS011;7593;49.006;8.372;2022-09-29T08:32:38;6.00;;;3.67;;
14994;SDS011;7593;49.006;8.372;2022-09-29T08:35:05;6.13;;;4.38;;
14994;SDS011;7593;49.006;8.372;2022-09-29T08:37:33;7.25;;;4.40;;
14994;SDS011;7593;49.006;8.372;2022-09-29T08:40:00;6.65;;;4.40;;
14994;SDS011;7593;49.006;8.372;2022-09-29T08:42:28;8.27;;;4.30;;
14994;SDS011;7593;49.006;8.372;2022-09-29T08:45:10;9.23;;;4.25;;
14994;SDS011;7593;49.006;8.372;2022-09-29T08:47:44;4.53;;;3.72;;
14994;SDS011;7593;49.006;8.372;2022-09-29T08:50:16;18.02;;;6.82;;
14994;SDS011;7593;49.006;8.372;2022-09-29T08:52:52;7.55;;;4.13;;
14994;SDS011;7593;49.006;8.372;2022-09-29T08:55:24;8.10;;;4.15;;
14994;SDS011;7593;49.006;8.372;2022-09-29T08:57:57;31.95;;;12.32;;
14994;SDS011;7593;49.006;8.372;2022-09-29T09:00:29;6.68;;;4.85;;
14994;SDS011;7593;49.006;8.372;2022-09-29T09:03:18;5.75;;;4.32;;
14994;SDS011;7593;49.006;8.372;2022-09-29T09:06:09;13.13;;;7.22;;
14994;SDS011;7593;49.006;8.372;2022-09-29T09:11:56;6.13;;;4.05;;
14994;SDS011;7593;49.006;8.372;2022-09-29T09:14:37;4.88;;;3.80;;
14994;SDS011;7593;49.006;8.372;2022-09-29T09:17:18;6.57;;;4.78;;
14994;SDS011;7593;49.006;8.372;2022-09-29T09:22:46;6.72;;;5.20;;
14994;SDS011;7593;49.006;8.372;2022-09-29T09:25:22;9.35;;;5.50;;
14994;SDS011;7593;49.006;8.372;2022-09-29T09:27:59;7.70;;;5.22;;
14994;SDS011;7593;49.006;8.372;2022-09-29T09:30:32;7.57;;;5.13;;
14994;SDS011;7593;49.006;8.372;2022-09-29T09:33:06;8.25;;;4.80;;
14994;SDS011;7593;49.006;8.372;2022-09-29T09:35:39;9.18;;;5.28;;
14994;SDS011;7593;49.006;8.372;2022-09-29T09:38:11;6.50;;;5.82;;
14994;SDS011;7593;49.006;8.372;2022-09-29T09:40:41;8.55;;;6.63;;
14994;SDS011;7593;49.006;8.372;2022-09-29T09:43:11;7.28;;;6.55;;
14994;SDS011;7593;49.006;8.372;2022-09-29T09:45:45;8.45;;;6.32;;
14994;SDS011;7593;49.006;8.372;2022-09-29T09:48:18;12.02;;;6.28;;
14994;SDS011;7593;49.006;8.372;2022-09-29T09:50:48;8.18;;;6.13;;
14994;SDS011;7593;49.006;8.372;2022-09-29T09:53:18;8.38;;;5.90;;
14994;SDS011;7593;49.006;8.372;2022-09-29T09:55:49;10.32;;;6.25;;
14994;SDS011;7593;49.006;8.372;2022-09-29T09:58:27;8.52;;;5.07;;
14994;SDS011;7593;49.006;8.372;2022-09-29T10:01:05;6.32;;;5.40;;
14994;SDS011;7593;49.006;8.372;2022-09-29T10:03:37;8.90;;;6.15;;
14994;SDS011;7593;49.006;8.372;2022-09-29T10:06:04;27.13;;;18.55;;
14994;SDS011;7593;49.006;8.372;2022-09-29T10:08:33;11.63;;;9.18;;
14994;SDS011;7593;49.006;8.372;2022-09-29T10:11:04;7.90;;;5.40;;
14994;SDS011;7593;49.006;8.372;2022-09-29T10:13:46;5.40;;;4.80;;
14994;SDS011;7593;49.006;8.372;2022-09-29T10:16:16;5.95;;;4.93;;
14994;SDS011;7593;49.006;8.372;2022-09-29T10:18:49;6.97;;;5.03;;
14994;SDS011;7593;49.006;8.372;2022-09-29T10:21:18;7.25;;;5.28;;
14994;SDS011;7593;49.006;8.372;2022-09-29T10:23:51;8.52;;;4.93;;
14994;SDS011;7593;49.006;8.372;2022-09-29T10:26:20;8.23;;;4.90;;
14994;SDS011;7593;49.006;8.372;2022-09-29T10:28:51;8.57;;;5.68;;
14994;SDS011;7593;49.006;8.372;2022-09-29T10:31:22;7.72;;;4.07;;
14994;SDS011;7593;49.006;8.372;2022-09-29T10:33:55;5.53;;;4.13;;
14994;SDS011;7593;49.006;8.372;2022-09-29T10:36:24;5.03;;;4.25;;
14994;SDS011;7593;49.006;8.372;2022-09-29T10:38:53;4.97;;;4.20;;
14994;SDS011;7593;49.006;8.372;2022-09-29T10:41:21;5.47;;;3.92;;
14994;SDS011;7593;49.006;8.372;2022-09-29T10:43:49;4.95;;;3.78;;
14994;SDS011;7593;49.006;8.372;2022-09-29T10:46:36;5.18;;;3.92;;
14994;SDS011;7593;49.006;8.372;2022-09-29T10:49:14;5.68;;;3.55;;
14994;SDS011;7593;49.006;8.372;2022-09-29T10:51:47;5.32;;;3.60;;
14994;SDS011;7593;49.006;8.372;2022-09-29T10:54:28;5.78;;;3.55;;
14994;SDS011;7593;49.006;8.372;2022-09-29T10:56:57;5.40;;;4.03;;
14994;SDS011;7593;49.006;8.372;2022-09-29T10:59:25;4.90;;;3.40;;
14994;SDS011;7593;49.006;8.372;2022-09-29T11:01:53;6.20;;;3.88;;
14994;SDS011;7593;49.006;8.372;2022-09-29T11:04:23;4.60;;;3.30;;
14994;SDS011;7593;49.006;8.372;2022-09-29T11:06:53;5.20;;;3.25;;
14994;SDS011;7593;49.006;8.372;2022-09-29T11:09:28;4.55;;;3.35;;
14994;SDS011;7593;49.006;8.372;2022-09-29T11:11:56;10.90;;;3.67;;
14994;SDS011;7593;49.006;8.372;2022-09-29T11:14:26;3.80;;;3.25;;
14994;SDS011;7593;49.006;8.372;2022-09-29T11:16:55;6.18;;;3.58;;
14994;SDS011;7593;49.006;8.372;2022-09-29T11:19:24;5.78;;;3.25;;
14994;SDS011;7593;49.006;8.372;2022-09-29T11:24:49;4.72;;;3.42;;
14994;SDS011;7593;49.006;8.372;2022-09-29T11:27:58;6.80;;;4.03;;
14994;SDS011;7593;49.006;8.372;2022-09-29T11:30:40;5.43;;;3.55;;
14994;SDS011;7593;49.006;8.372;2022-09-29T11:33:17;3.80;;;3.50;;
14994;SDS011;7593;49.006;8.372;2022-09-29T11:35:55;7.38;;;3.60;;
14994;SDS011;7593;49.006;8.372;2022-09-29T11:41:44;3.92;;;3.30;;
14994;SDS011;7593;49.006;8.372;2022-09-29T11:47:17;4.78;;;3.15;;
14994;SDS011;7593;49.006;8.372;2022-09-29T11:49:57;5.68;;;4.32;;
14994;SDS011;7593;49.006;8.372;2022-09-29T11:55:39;4.82;;;3.60;;
14994;SDS011;7593;49.006;8.372;2022-09-29T11:58:23;6.60;;;3.92;;
14994;SDS011;7593;49.006;8.372;2022-09-29T12:01:04;5.00;;;3.58;;
14994;SDS011;7593;49.006;8.372;2022-09-29T12:03:39;4.35;;;3.80;;
14994;SDS011;7593;49.006;8.372;2022-09-29T12:09:12;8.20;;;4.63;;
14994;SDS011;7593;49.006;8.372;2022-09-29T12:11:56;6.13;;;4.13;;
14994;SDS011;7593;49.006;8.372;2022-09-29T12:14:29;7.78;;;4.32;;
14994;SDS011;7593;49.006;8.372;2022-09-29T12:17:01;5.22;;;3.72;;
14994;SDS011;7593;49.006;8.372;2022-09-29T12:19:32;4.85;;;3.85;;
14994;SDS011;7593;49.006;8.372;2022-09-29T12:22:06;5.65;;;3.80;;
14994;SDS011;7593;49.006;8.372;2022-09-29T12:24:35;5.63;;;4.38;;
14994;SDS011;7593;49.006;8.372;2022-09-29T12:27:07;5.05;;;4.03;;
14994;SDS011;7593;49.006;8.372;2022-09-29T12:29:42;6.07;;;4.20;;
14994;SDS011;7593;49.006;8.372;2022-09-29T12:32:15;7.30;;;4.40;;
14994;SDS011;7593;49.006;8.372;2022-09-29T12:34:47;6.18;;;4.13;;
14994;SDS011;7593;49.006;8.372;2022-09-29T12:37:18;5.38;;;4.25;;
14994;SDS011;7593;49.006;8.372;2022-09-29T12:39:51;5.28;;;3.83;;
14994;SDS011;7593;49.006;8.372;2022-09-29T12:42:31;4.85;;;3.70;;
14994;SDS011;7593;49.006;8.372;2022-09-29T12:45:19;5.60;;;3.78;;
14994;SDS011;7593;49.006;8.372;2022-09-29T12:47:53;8.25;;;3.70;;
14994;SDS011;7593;49.006;8.372;2022-09-29T12:50:26;5.90;;;3.38;;
14994;SDS011;7593;49.006;8.372;2022-09-29T12:52:57;5.78;;;3.30;;
14994;SDS011;7593;49.006;8.372;2022-09-29T12:55:30;4.82;;;2.92;;
14994;SDS011;7593;49.006;8.372;2022-09-29T12:58:10;9.15;;;4.70;;
14994;SDS011;7593;49.006;8.372;2022-09-29T13:00:43;4.82;;;3.22;;
14994;SDS011;7593;49.006;8.372;2022-09-29T13:09:27;8.60;;;3.30;;
14994;SDS011;7593;49.006;8.372;2022-09-29T13:12:09;6.47;;;2.97;;
14994;SDS011;7593;49.006;8.372;2022-09-29T13:15:00;5.35;;;2.97;;
14994;SDS011;7593;49.006;8.372;2022-09-29T13:17:53;4.97;;;3.17;;
14994;SDS011;7593;49.006;8.372;2022-09-29T13:20:57;7.00;;;3.22;;
14994;SDS011;7593;49.006;8.372;2022-09-29T13:26:42;5.25;;;3.45;;
14994;SDS011;7593;49.006;8.372;2022-09-29T13:29:31;7.72;;;3.00;;
14994;SDS011;7593;49.006;8.372;2022-09-29T13:32:07;6.82;;;3.63;;
14994;SDS011;7593;49.006;8.372;2022-09-29T13:34:36;8.50;;;3.75;;
14994;SDS011;7593;49.006;8.372;2022-09-29T13:37:04;5.97;;;3.30;;
14994;SDS011;7593;49.006;8.372;2022-09-29T13:39:33;5.53;;;2.72;;
14994;SDS011;7593;49.006;8.372;2022-09-29T13:51:40;7.57;;;3.60;;
14994;SDS011;7593;49.006;8.372;2022-09-29T13:54:25;6.55;;;3.83;;
14994;SDS011;7593;49.006;8.372;2022-09-29T13:57:16;10.63;;;7.05;;
14994;SDS011;7593;49.006;8.372;2022-09-29T13:59:55;7.30;;;4.40;;
14994;SDS011;7593;49.006;8.372;2022-09-29T14:03:00;4.90;;;3.60;;
14994;SDS011;7593;49.006;8.372;2022-09-29T14:05:57;8.88;;;4.10;;
14994;SDS011;7593;49.006;8.372;2022-09-29T14:08:34;7.20;;;3.38;;
14994;SDS011;7593;49.006;8.372;2022-09-29T14:11:06;7.57;;;5.47;;
14994;SDS011;7593;49.006;8.372;2022-09-29T14:13:41;8.50;;;4.50;;
14994;SDS011;7593;49.006;8.372;2022-09-29T14:16:23;6.90;;;3.30;;
14994;SDS011;7593;49.006;8.372;2022-09-29T14:18:59;6.35;;;3.40;;
14994;SDS011;7593;49.006;8.372;2022-09-29T14:21:49;8.27;;;4.20;;
14994;SDS011;7593;49.006;8.372;2022-09-29T14:27:23;8.98;;;4.03;;
14994;SDS011;7593;49.006;8.372;2022-09-29T14:29:54;5.80;;;2.03;;
14994;SDS011;7593;49.006;8.372;2022-09-29T14:32:30;3.63;;;1.92;;
14994;SDS011;7593;49.006;8.372;2022-09-29T14:35:08;3.67;;;1.85;;
14994;SDS011;7593;49.006;8.372;2022-09-29T14:37:42;2.42;;;1.60;;
14994;SDS011;7593;49.006;8.372;2022-09-29T14:40:12;2.50;;;1.90;;
14994;SDS011;7593;49.006;8.372;2022-09-29T14:43:01;2.53;;;1.48;;
14994;SDS011;7593;49.006;8.372;2022-09-29T14:45:29;5.72;;;1.85;;
14994;SDS011;7593;49.006;8.372;2022-09-29T14:48:18;3.10;;;2.35;;
14994;SDS011;7593;49.006;8.372;2022-09-29T14:51:10;1.88;;;1.40;;
14994;SDS011;7593;49.006;8.372;2022-09-29T14:54:04;2.00;;;1.30;;
14994;SDS011;7593;49.006;8.372;2022-09-29T14:56:41;1.83;;;1.40;;
14994;SDS011;7593;49.006;8.372;2022-09-29T14:59:18;2.15;;;1.55;;
14994;SDS011;7593;49.006;8.372;2022-09-29T15:01:59;3.28;;;2.03;;
14994;SDS011;7593;49.006;8.372;2022-09-29T15:04:41;2.60;;;1.58;;
14994;SDS011;7593;49.006;8.372;2022-09-29T15:07:10;5.07;;;1.80;;
14994;SDS011;7593;49.006;8.372;2022-09-29T15:09:45;3.17;;;1.65;;
14994;SDS011;7593;49.006;8.372;2022-09-29T15:12:14;3.63;;;2.00;;
14994;SDS011;7593;49.006;8.372;2022-09-29T15:14:44;4.40;;;1.90;;
14994;SDS011;7593;49.006;8.372;2022-09-29T15:17:13;5.00;;;1.63;;
14994;SDS011;7593;49.006;8.372;2022-09-29T15:19:47;2.53;;;1.38;;
14994;SDS011;7593;49.006;8.372;2022-09-29T15:25:23;2.53;;;1.52;;
14994;SDS011;7593;49.006;8.372;2022-09-29T15:27:53;2.60;;;1.42;;
14994;SDS011;7593;49.006;8.372;2022-09-29T15:30:24;6.30;;;1.50;;
14994;SDS011;7593;49.006;8.372;2022-09-29T15:32:53;2.08;;;1.38;;
14994;SDS011;7593;49.006;8.372;2022-09-29T15:35:39;5.57;;;2.20;;
14994;SDS011;7593;49.006;8.372;2022-09-29T15:38:15;3.58;;;2.40;;
14994;SDS011;7593;49.006;8.372;2022-09-29T15:40:54;5.20;;;1.50;;
14994;SDS011;7593;49.006;8.372;2022-09-29T15:43:24;2.58;;;1.52;;
14994;SDS011;7593;49.006;8.372;2022-09-29T15:45:54;2.88;;;1.42;;
14994;SDS011;7593;49.006;8.372;2022-09-29T15:48:25;2.53;;;1.33;;
14994;SDS011;7593;49.006;8.372;2022-09-29T15:50:52;2.13;;;1.58;;
14994;SDS011;7593;49.006;8.372;2022-09-29T15:53:20;2.42;;;1.60;;
14994;SDS011;7593;49.006;8.372;2022-09-29T15:55:48;3.53;;;1.70;;
14994;SDS011;7593;49.006;8.372;2022-09-29T16:01:02;4.43;;;2.55;;
14994;SDS011;7593;49.006;8.372;2022-09-29T16:03:31;2.78;;;2.15;;
14994;SDS011;7593;49.006;8.372;2022-09-29T16:06:06;5.03;;;2.10;;
14994;SDS011;7593;49.006;8.372;2022-09-29T16:08:42;4.45;;;2.53;;
14994;SDS011;7593;49.006;8.372;2022-09-29T16:11:16;4.88;;;2.30;;
14994;SDS011;7593;49.006;8.372;2022-09-29T16:13:48;8.55;;;2.35;;
14994;SDS011;7593;49.006;8.372;2022-09-29T16:16:23;3.08;;;1.58;;